createdAt,value
2018-04-07T00:02:05.821Z,5.07
2018-04-07T00:04:34.079Z,4.72
2018-04-07T00:07:03.057Z,4.80
2018-04-07T00:09:32.045Z,4.60
2018-04-07T00:12:00.305Z,4.20
2018-04-07T00:14:28.551Z,4.20
2018-04-07T00:16:56.781Z,4.57
2018-04-07T00:19:25.791Z,3.93
2018-04-07T00:21:54.791Z,4.37
2018-04-07T00:24:23.007Z,4.35
2018-04-07T00:26:51.241Z,4.28
2018-04-07T00:29:19.496Z,4.18
2018-04-07T00:31:48.510Z,4.18
2018-04-07T00:34:16.747Z,4.30
2018-04-07T00:36:45.014Z,4.20
2018-04-07T00:39:13.217Z,4.03
2018-04-07T00:41:41.446Z,3.90
2018-04-07T00:44:09.694Z,3.90
2018-04-07T00:46:37.924Z,3.70
2018-04-07T00:49:06.179Z,3.92
2018-04-07T00:51:34.398Z,3.75
2018-04-07T00:54:03.408Z,4.47
2018-04-07T00:56:32.416Z,4.05
2018-04-07T00:59:00.648Z,4.05
2018-04-07T01:01:28.883Z,4.32
2018-04-07T01:03:57.111Z,4.50
2018-04-07T01:06:25.381Z,4.45
2018-04-07T01:08:53.577Z,4.30
2018-04-07T01:11:21.810Z,4.25
2018-04-07T01:13:50.050Z,4.25
2018-04-07T01:16:18.301Z,5.15
2018-04-07T01:18:47.314Z,4.90
2018-04-07T01:21:15.540Z,4.97
2018-04-07T01:23:43.775Z,4.47
2018-04-07T01:26:12.017Z,4.15
2018-04-07T01:28:41.052Z,4.30
2018-04-07T01:31:09.268Z,4.18
2018-04-07T01:33:37.493Z,3.90
2018-04-07T01:36:05.763Z,4.07
2018-04-07T01:38:33.983Z,3.80
2018-04-07T01:41:02.226Z,4.40
2018-04-07T01:43:30.489Z,4.30
2018-04-07T01:45:58.698Z,4.10
2018-04-07T01:48:26.911Z,3.78
2018-04-07T01:50:55.913Z,3.60
2018-04-07T01:53:24.936Z,4.00
2018-04-07T01:55:53.166Z,4.07
2018-04-07T01:58:21.390Z,3.87
2018-04-07T02:00:49.638Z,4.15
2018-04-07T02:03:18.642Z,4.22
2018-04-07T02:05:46.891Z,4.15
2018-04-07T02:08:15.115Z,4.53
2018-04-07T02:10:43.404Z,4.35
2018-04-07T02:13:11.622Z,3.80
2018-04-07T02:15:40.651Z,4.82
2018-04-07T02:18:08.906Z,4.32
2018-04-07T02:20:37.893Z,4.37
2018-04-07T02:23:06.922Z,4.37
2018-04-07T02:25:35.147Z,4.10
2018-04-07T02:28:03.382Z,4.50
2018-04-07T02:30:31.629Z,4.40
2018-04-07T02:33:00.659Z,4.20
2018-04-07T02:35:28.867Z,4.60
2018-04-07T02:37:57.081Z,4.50
2018-04-07T02:40:25.350Z,4.28
2018-04-07T02:42:53.566Z,4.90
2018-04-07T02:45:21.795Z,4.57
2018-04-07T02:47:50.806Z,4.72
2018-04-07T02:50:19.153Z,4.60
2018-04-07T02:52:47.266Z,5.28
2018-04-07T02:55:15.516Z,4.55
2018-04-07T02:57:43.781Z,4.25
2018-04-07T03:00:12.772Z,4.83
2018-04-07T03:02:41.022Z,4.97
2018-04-07T03:05:09.270Z,4.93
2018-04-07T03:07:37.501Z,5.00
2018-04-07T03:10:06.510Z,4.82
2018-04-07T03:12:35.519Z,4.60
2018-04-07T03:15:03.742Z,4.70
2018-04-07T03:17:31.982Z,4.62
2018-04-07T03:20:00.219Z,4.90
2018-04-07T03:22:29.232Z,5.78
2018-04-07T03:24:57.478Z,5.22
2018-04-07T03:27:25.726Z,5.00
2018-04-07T03:29:53.943Z,5.20
2018-04-07T03:32:22.966Z,5.00
2018-04-07T03:34:51.951Z,5.10
2018-04-07T03:37:20.192Z,5.47
2018-04-07T03:39:48.457Z,5.15
2018-04-07T03:42:16.680Z,5.57
2018-04-07T03:44:44.924Z,4.93
2018-04-07T03:47:13.153Z,5.28
2018-04-07T03:49:41.382Z,5.87
2018-04-07T03:52:10.369Z,5.50
2018-04-07T03:54:38.630Z,5.40
2018-04-07T03:57:06.889Z,5.80
2018-04-07T03:59:35.110Z,5.72
2018-04-07T04:02:03.372Z,6.18
2018-04-07T04:04:31.635Z,6.40
2018-04-07T04:06:59.892Z,5.97
2018-04-07T04:09:28.105Z,5.87
2018-04-07T04:11:57.096Z,5.50
2018-04-07T04:14:25.352Z,6.30
2018-04-07T04:16:53.569Z,5.60
2018-04-07T04:19:22.571Z,5.53
2018-04-07T04:21:50.787Z,6.20
2018-04-07T04:24:19.038Z,6.28
2018-04-07T04:26:47.272Z,6.30
2018-04-07T04:29:15.483Z,6.00
2018-04-07T04:31:43.726Z,5.95
2018-04-07T04:34:11.953Z,6.05
2018-04-07T04:36:40.197Z,6.40
2018-04-07T04:39:08.430Z,6.25
2018-04-07T04:41:36.701Z,5.75
2018-04-07T04:44:05.691Z,5.60
2018-04-07T04:46:33.945Z,6.40
2018-04-07T04:49:02.162Z,6.50
2018-04-07T04:51:30.410Z,6.10
2018-04-07T04:53:58.650Z,5.85
2018-04-07T04:56:26.897Z,6.10
2018-04-07T04:58:55.147Z,6.20
2018-04-07T05:01:23.394Z,6.10
2018-04-07T05:03:51.642Z,5.90
2018-04-07T05:06:20.621Z,6.00
2018-04-07T05:08:48.881Z,5.75
2018-04-07T05:11:17.098Z,5.70
2018-04-07T05:13:45.312Z,5.45
2018-04-07T05:16:13.553Z,6.07
2018-04-07T05:18:41.770Z,6.00
2018-04-07T05:21:10.021Z,6.43
2018-04-07T05:23:38.255Z,6.35
2018-04-07T05:26:07.270Z,6.10
2018-04-07T05:28:35.519Z,6.35
2018-04-07T05:31:03.789Z,6.22
2018-04-07T05:33:32.014Z,5.82
2018-04-07T05:36:00.261Z,6.35
2018-04-07T05:38:29.258Z,5.60
2018-04-07T05:40:57.514Z,5.85
2018-04-07T05:43:25.780Z,5.60
2018-04-07T05:45:54.060Z,5.78
2018-04-07T05:48:22.271Z,5.85
2018-04-07T05:50:50.521Z,5.57
2018-04-07T05:53:18.743Z,5.62
2018-04-07T05:55:46.986Z,6.10
2018-04-07T05:58:15.238Z,6.30
2018-04-07T06:00:43.496Z,5.45
2018-04-07T06:03:11.734Z,5.55
2018-04-07T06:05:39.956Z,5.97
2018-04-07T06:08:08.224Z,6.00
2018-04-07T06:10:36.532Z,5.80
2018-04-07T06:13:04.755Z,6.07
2018-04-07T06:15:33.014Z,5.80
2018-04-07T06:18:01.250Z,6.10
2018-04-07T06:20:29.506Z,5.68
2018-04-07T06:22:57.762Z,5.65
2018-04-07T06:25:26.029Z,5.65
2018-04-07T06:27:54.259Z,5.68
2018-04-07T06:30:22.527Z,5.60
2018-04-07T06:32:50.752Z,5.53
2018-04-07T06:35:18.989Z,5.93
2018-04-07T06:37:47.246Z,5.72
2018-04-07T06:40:15.492Z,5.80
2018-04-07T06:42:43.755Z,6.07
2018-04-07T06:45:12.015Z,6.30
2018-04-07T06:47:41.005Z,6.05
2018-04-07T06:50:09.982Z,6.05
2018-04-07T06:52:38.239Z,5.60
2018-04-07T06:55:06.511Z,5.90
2018-04-07T06:57:34.736Z,5.97
2018-04-07T07:00:03.994Z,5.90
2018-04-07T07:02:32.240Z,5.28
2018-04-07T07:05:00.457Z,6.03
2018-04-07T07:07:28.843Z,5.95
2018-04-07T07:09:57.041Z,5.33
2018-04-07T07:12:26.067Z,5.47
2018-04-07T07:14:54.306Z,5.87
2018-04-07T07:17:22.616Z,5.87
2018-04-07T07:19:50.831Z,6.18
2018-04-07T07:22:19.066Z,5.25
2018-04-07T07:24:47.321Z,6.05
2018-04-07T07:27:15.546Z,5.53
2018-04-07T07:29:44.577Z,5.78
2018-04-07T07:32:13.556Z,5.60
2018-04-07T07:34:42.567Z,5.70
2018-04-07T07:37:11.550Z,5.30
2018-04-07T07:39:40.695Z,5.78
2018-04-07T07:42:09.002Z,6.10
2018-04-07T07:44:37.201Z,5.37
2018-04-07T07:47:06.226Z,5.35
2018-04-07T07:49:34.468Z,5.80
2018-04-07T07:52:02.704Z,5.57
2018-04-07T07:54:30.939Z,6.00
2018-04-07T07:56:59.185Z,6.00
2018-04-07T07:59:27.426Z,5.37
2018-04-07T08:01:56.431Z,5.40
2018-04-07T08:04:24.673Z,5.70
2018-04-07T08:06:52.921Z,5.47
2018-04-07T08:09:21.938Z,5.87
2018-04-07T08:11:50.187Z,5.32
2018-04-07T08:14:19.223Z,5.75
2018-04-07T08:16:47.478Z,6.00
2018-04-07T08:19:15.728Z,5.47
2018-04-07T08:21:43.937Z,5.78
2018-04-07T08:24:12.202Z,5.62
2018-04-07T08:26:41.202Z,5.45
2018-04-07T08:29:09.477Z,5.25
2018-04-07T08:31:37.730Z,5.80
2018-04-07T08:34:06.736Z,5.85
2018-04-07T08:36:36.534Z,5.55
2018-04-07T08:39:06.216Z,5.35
2018-04-07T08:41:34.470Z,5.45
2018-04-07T08:44:02.693Z,5.37
2018-04-07T08:46:30.967Z,5.47
2018-04-07T08:48:59.205Z,5.60
2018-04-07T08:51:27.440Z,5.68
2018-04-07T08:53:55.732Z,5.60
2018-04-07T08:56:23.990Z,6.18
2018-04-07T08:58:53.003Z,5.70
2018-04-07T09:01:21.253Z,5.72
2018-04-07T09:03:50.243Z,6.10
2018-04-07T09:06:18.514Z,6.97
2018-04-07T09:08:46.742Z,5.65
2018-04-07T09:11:14.968Z,4.95
2018-04-07T09:13:43.208Z,5.65
2018-04-07T09:16:11.463Z,6.37
2018-04-07T09:18:39.717Z,5.90
2018-04-07T09:21:07.980Z,5.60
2018-04-07T09:23:37.010Z,5.82
2018-04-07T09:26:05.258Z,5.50
2018-04-07T09:28:33.459Z,5.68
2018-04-07T09:31:07.342Z,7.10
2018-04-07T09:33:36.369Z,5.95
2018-04-07T09:36:04.597Z,5.60
2018-04-07T09:38:32.866Z,5.85
2018-04-07T09:41:02.263Z,6.10
2018-04-07T09:43:30.495Z,5.72
2018-04-07T09:45:58.781Z,5.80
2018-04-07T09:48:27.021Z,5.80
2018-04-07T09:50:56.137Z,5.82
2018-04-07T09:53:24.399Z,5.43
2018-04-07T09:55:53.399Z,6.03
2018-04-07T09:58:22.421Z,5.65
2018-04-07T10:00:50.771Z,5.40
2018-04-07T10:03:21.782Z,5.12
2018-04-07T10:05:50.030Z,5.50
2018-04-07T10:08:18.278Z,5.72
2018-04-07T10:10:46.521Z,5.95
2018-04-07T10:13:16.521Z,5.90
2018-04-07T10:15:44.745Z,6.20
2018-04-07T10:18:12.984Z,5.62
2018-04-07T10:20:41.996Z,5.87
2018-04-07T10:23:11.001Z,5.85
2018-04-07T10:25:39.250Z,5.77
2018-04-07T10:28:07.589Z,6.35
2018-04-07T10:30:35.793Z,5.68
2018-04-07T10:33:04.061Z,5.12
2018-04-07T10:35:32.290Z,6.18
2018-04-07T10:38:00.604Z,5.90
2018-04-07T10:40:28.899Z,5.45
2018-04-07T10:42:57.130Z,6.82
2018-04-07T10:45:25.363Z,7.15
2018-04-07T10:47:54.392Z,6.30
2018-04-07T10:50:22.660Z,6.25
2018-04-07T10:52:50.890Z,7.53
2018-04-07T10:55:19.151Z,5.90
2018-04-07T10:57:47.381Z,6.20
2018-04-07T11:00:16.386Z,5.23
2018-04-07T11:02:44.638Z,9.65
2018-04-07T11:05:13.836Z,8.23
2018-04-07T11:07:42.083Z,18.15
2018-04-07T11:10:10.325Z,25.08
2018-04-07T11:12:38.577Z,8.35
2018-04-07T11:15:06.799Z,7.93
2018-04-07T11:17:35.077Z,6.40
2018-04-07T11:20:03.301Z,10.13
2018-04-07T11:22:32.303Z,10.70
2018-04-07T11:25:00.563Z,7.83
2018-04-07T11:27:29.619Z,6.28
2018-04-07T11:29:57.870Z,7.65
2018-04-07T11:32:26.096Z,7.53
2018-04-07T11:34:54.328Z,6.60
2018-04-07T11:37:22.594Z,6.47
2018-04-07T11:39:50.830Z,6.03
2018-04-07T11:42:19.833Z,6.68
2018-04-07T11:44:48.874Z,6.05
2018-04-07T11:47:17.884Z,5.97
2018-04-07T11:49:46.130Z,6.18
2018-04-07T11:52:14.358Z,5.90
2018-04-07T11:54:42.625Z,5.85
2018-04-07T11:57:10.854Z,6.35
2018-04-07T11:59:39.094Z,5.53
2018-04-07T12:02:07.359Z,6.10
2018-04-07T12:04:35.583Z,5.97
2018-04-07T12:07:03.867Z,8.60
2018-04-07T12:09:32.120Z,6.65
2018-04-07T12:12:00.372Z,8.07
2018-04-07T12:14:29.389Z,5.77
2018-04-07T12:16:57.675Z,6.60
2018-04-07T12:19:25.913Z,5.25
2018-04-07T12:21:54.147Z,6.87
2018-04-07T12:24:22.394Z,8.82
2018-04-07T12:26:50.660Z,38.50
2018-04-07T12:29:19.651Z,8.52
2018-04-07T12:31:48.666Z,5.10
2018-04-07T12:34:16.910Z,6.80
2018-04-07T12:36:45.162Z,6.25
2018-04-07T12:39:13.405Z,6.30
2018-04-07T12:41:41.629Z,5.27
2018-04-07T12:44:09.884Z,5.32
2018-04-07T12:46:38.162Z,4.78
2018-04-07T12:49:06.394Z,5.32
2018-04-07T12:51:34.659Z,5.90
2018-04-07T12:54:03.644Z,5.03
2018-04-07T12:56:32.665Z,11.63
2018-04-07T12:59:00.944Z,6.85
2018-04-07T13:01:29.175Z,5.73
2018-04-07T13:03:57.418Z,5.10
2018-04-07T13:06:25.663Z,5.35
2018-04-07T13:08:53.888Z,4.93
2018-04-07T13:11:22.957Z,5.53
2018-04-07T13:13:51.210Z,4.40
2018-04-07T13:16:19.458Z,5.32
2018-04-07T13:18:47.677Z,4.87
2018-04-07T13:21:15.927Z,6.40
2018-04-07T13:23:44.164Z,13.15
2018-04-07T13:26:12.430Z,6.00
2018-04-07T13:28:41.427Z,4.30
2018-04-07T13:31:09.689Z,5.10
2018-04-07T13:33:38.719Z,4.95
2018-04-07T13:36:06.182Z,4.40
2018-04-07T13:38:34.443Z,4.65
2018-04-07T13:41:02.696Z,4.07
2018-04-07T13:43:30.967Z,4.80
2018-04-07T13:45:59.201Z,4.50
2018-04-07T13:48:28.218Z,5.00
2018-04-07T13:50:56.463Z,4.68
2018-04-07T13:53:25.453Z,5.10
2018-04-07T13:55:53.701Z,4.70
2018-04-07T13:58:21.925Z,4.95
2018-04-07T14:00:50.177Z,5.70
2018-04-07T14:03:18.426Z,4.80
2018-04-07T14:05:46.636Z,5.10
2018-04-07T14:08:15.659Z,4.55
2018-04-07T14:10:43.948Z,4.43
2018-04-07T14:13:12.162Z,4.35
2018-04-07T14:15:40.397Z,5.05
2018-04-07T14:18:08.646Z,4.32
2018-04-07T14:20:37.633Z,4.30
2018-04-07T14:23:06.643Z,4.15
2018-04-07T14:25:34.864Z,3.27
2018-04-07T14:28:03.104Z,3.40
2018-04-07T14:30:31.370Z,5.83
2018-04-07T14:32:59.589Z,4.07
2018-04-07T14:35:27.811Z,3.97
2018-04-07T14:37:56.856Z,3.83
2018-04-07T14:40:25.057Z,4.60
2018-04-07T14:42:53.389Z,3.50
2018-04-07T14:47:49.533Z,4.30
2018-04-07T14:50:17.855Z,3.40
2018-04-07T14:52:46.055Z,4.30
2018-04-07T14:55:15.078Z,3.37
2018-04-07T14:57:43.339Z,4.07
2018-04-07T15:00:11.557Z,4.15
2018-04-07T15:02:39.807Z,3.70
2018-04-07T15:05:08.035Z,4.93
2018-04-07T15:07:36.273Z,3.57
2018-04-07T15:10:04.531Z,2.97
2018-04-07T15:12:32.770Z,5.27
2018-04-07T16:19:05.140Z,14.80
2018-04-07T16:21:33.385Z,4.40
2018-04-07T17:23:09.652Z,9.27
2018-04-07T17:25:37.875Z,7.53
2018-04-07T17:28:06.117Z,6.83
2018-04-07T17:30:34.394Z,7.00
2018-04-07T17:33:02.629Z,7.07
2018-04-07T17:35:31.647Z,6.87
2018-04-07T17:37:59.946Z,6.67
2018-04-07T17:40:28.192Z,7.07
2018-04-07T17:42:56.484Z,7.43
2018-04-07T17:45:24.736Z,8.73
2018-04-07T17:47:53.729Z,7.20
2018-04-07T17:50:22.745Z,6.83
2018-04-07T17:52:51.071Z,7.53
2018-04-07T17:55:19.320Z,7.60
2018-04-07T17:57:47.563Z,8.27
2018-04-07T18:00:15.815Z,7.43
2018-04-07T18:02:44.044Z,13.50
2018-04-07T18:05:12.291Z,8.00
2018-04-07T18:07:44.058Z,9.60
2018-04-07T18:10:12.318Z,7.57
2018-04-07T18:12:45.242Z,10.10
2018-04-07T18:15:13.513Z,8.07
2018-04-07T18:17:41.773Z,8.67
2018-04-07T18:20:10.041Z,10.53
2018-04-07T18:22:38.261Z,8.20
2018-04-07T18:25:07.319Z,10.10
2018-04-07T18:27:35.571Z,7.20
2018-04-07T18:30:04.558Z,8.27
2018-04-07T18:32:32.788Z,7.47
2018-04-07T18:35:01.033Z,8.80
2018-04-07T18:37:29.286Z,9.67
2018-04-07T18:39:57.483Z,10.07
2018-04-07T18:42:25.745Z,8.27
2018-04-07T18:44:54.748Z,8.30
2018-04-07T18:47:23.862Z,8.07
2018-04-07T18:49:52.087Z,8.63
2018-04-07T18:52:20.421Z,8.73
2018-04-07T18:54:48.665Z,9.10
2018-04-07T18:57:17.657Z,8.87
2018-04-07T18:59:46.710Z,7.40
2018-04-07T19:02:14.937Z,8.93
2018-04-07T19:04:43.182Z,8.53
2018-04-07T19:07:11.406Z,10.10
2018-04-07T19:09:39.659Z,8.93
2018-04-07T19:12:08.650Z,8.80
2018-04-07T19:14:37.677Z,9.60
2018-04-07T19:17:05.920Z,9.50
2018-04-07T19:19:34.906Z,8.83
2018-04-07T19:22:03.166Z,9.40
2018-04-07T19:24:31.386Z,8.70
2018-04-07T19:26:59.640Z,8.90
2018-04-07T19:29:28.625Z,11.60
2018-04-07T19:31:56.883Z,16.67
2018-04-07T19:34:25.136Z,16.30
2018-04-07T19:36:53.371Z,17.50
2018-04-07T19:39:22.387Z,11.50
2018-04-07T19:41:50.610Z,15.17
2018-04-07T19:44:18.879Z,10.73
2018-04-07T19:46:47.100Z,9.73
2018-04-07T19:49:15.342Z,9.77
2018-04-07T19:51:43.570Z,9.53
2018-04-07T19:54:11.909Z,9.30
2018-04-07T19:56:40.117Z,9.30
2018-04-07T19:59:09.221Z,8.23
2018-04-07T20:01:37.518Z,8.90
2018-04-07T20:04:05.742Z,8.60
2018-04-07T20:06:34.778Z,9.10
2018-04-07T20:09:03.010Z,9.73
2018-04-07T20:11:32.040Z,8.60
2018-04-07T20:14:00.276Z,9.70
2018-04-07T20:16:28.587Z,11.27
2018-04-07T20:18:56.874Z,10.20
2018-04-07T20:21:25.165Z,9.80
2018-04-07T20:23:53.422Z,10.07
2018-04-07T20:26:21.660Z,10.03
2018-04-07T20:28:49.923Z,9.83
2018-04-07T20:31:18.190Z,10.40
2018-04-07T20:33:46.435Z,10.80
2018-04-07T20:36:14.676Z,9.70
2018-04-07T20:38:42.941Z,11.33
2018-04-07T20:41:11.172Z,10.93
2018-04-07T20:43:39.413Z,10.30
2018-04-07T20:46:07.648Z,11.10
2018-04-07T20:48:35.909Z,10.27
2018-04-07T20:51:04.163Z,11.23
2018-04-07T20:53:32.400Z,10.97
2018-04-07T20:56:01.417Z,11.07
2018-04-07T20:58:29.762Z,11.20
2018-04-07T21:00:58.061Z,10.90
2018-04-07T21:03:27.077Z,10.73
2018-04-07T21:05:55.380Z,12.10
2018-04-07T21:08:23.586Z,11.63
2018-04-07T21:10:51.837Z,11.43
2018-04-07T21:13:20.079Z,12.03
2018-04-07T21:15:48.326Z,11.47
2018-04-07T21:18:17.341Z,11.93
2018-04-07T21:20:45.626Z,12.57
2018-04-07T21:23:13.890Z,11.67
2018-04-07T21:25:42.172Z,11.90
2018-04-07T21:28:10.462Z,11.23
2018-04-07T21:30:38.719Z,11.47
2018-04-07T21:33:06.954Z,11.57
2018-04-07T21:35:36.748Z,12.53
2018-04-07T21:38:04.957Z,13.83
2018-04-07T21:40:33.961Z,12.63
2018-04-07T21:43:02.966Z,11.23
2018-04-07T21:45:32.082Z,14.30
2018-04-07T21:48:00.322Z,12.13
2018-04-07T21:50:29.449Z,13.60
2018-04-07T21:52:57.712Z,13.77
2018-04-07T21:55:26.723Z,13.10
2018-04-07T21:57:54.967Z,10.83
2018-04-07T22:00:23.210Z,18.67
2018-04-07T22:02:51.470Z,13.13
2018-04-07T22:05:19.700Z,10.87
2018-04-07T22:07:48.712Z,13.53
2018-04-07T22:10:16.937Z,12.93
2018-04-07T22:12:45.181Z,11.33
2018-04-07T22:15:13.642Z,10.40
2018-04-07T22:17:41.870Z,10.80
2018-04-07T22:20:10.110Z,10.57
2018-04-07T22:22:38.370Z,11.23
2018-04-07T22:25:06.619Z,13.33
2018-04-07T22:27:35.641Z,10.83
2018-04-07T22:30:03.872Z,11.03
2018-04-07T22:32:32.113Z,11.70
2018-04-07T22:35:00.375Z,10.77
2018-04-07T22:37:28.602Z,11.93
2018-04-07T22:39:56.845Z,11.33
2018-04-07T22:42:25.170Z,14.13
2018-04-07T22:44:53.429Z,11.27
2018-04-07T22:47:21.654Z,17.98
2018-04-07T22:49:49.884Z,10.60
2018-04-07T22:52:19.644Z,9.90
2018-04-07T22:54:47.889Z,10.13
2018-04-07T22:57:16.890Z,9.50
2018-04-07T22:59:45.898Z,9.70
2018-04-07T23:02:14.121Z,9.80
2018-04-07T23:04:42.376Z,10.57
2018-04-07T23:07:10.661Z,9.87
2018-04-07T23:09:38.896Z,9.33
2018-04-07T23:12:08.009Z,10.03
2018-04-07T23:14:36.382Z,9.73
2018-04-07T23:17:04.629Z,9.40
2018-04-07T23:19:32.955Z,9.60
2018-04-07T23:22:01.241Z,10.40
2018-04-07T23:24:29.604Z,8.70
2018-04-07T23:26:57.842Z,9.60
2018-04-07T23:29:26.152Z,8.97
2018-04-07T23:31:54.428Z,8.97
2018-04-07T23:34:22.674Z,9.40
2018-04-07T23:36:51.725Z,8.87
2018-04-07T23:39:20.038Z,10.27
2018-04-07T23:41:48.237Z,12.53
2018-04-07T23:44:16.470Z,9.07
2018-04-07T23:46:44.768Z,9.80
2018-04-07T23:49:12.990Z,10.10
2018-04-07T23:51:41.225Z,8.53
2018-04-07T23:54:09.536Z,7.43
2018-04-07T23:56:37.910Z,8.43
2018-04-07T23:59:06.159Z,7.87
